Time;durP1;ratioP1;P1;durP2;ratioP2;P2;SDS_P1;SDS_P2;PMS_P1;PMS_P2;Temp;Humidity;BMP_temperature;BMP_pressure;BME280_temperature;BME280_humidity;BME280_pressure;Samples;Min_cycle;Max_cycle;Signal;HPM_P1;HPM_P2
2021/09/30 00:00:32;;;;;;;;;;;;;;;;;;2058366;28;1213;-80
2021/09/30 00:01:33;;;;;;;;;;;;;;;;;;2058667;28;1841;-80
2021/09/30 00:02:34;;;;;;;;;;;;;;;;;;2058172;28;1571;-80
2021/09/30 00:03:35;;;;;;;;;;;;;;;;;;2058493;28;1238;-80
2021/09/30 00:04:37;;;;;;;;;;;;;;;;;;2066264;28;1683;-80
2021/09/30 00:05:39;;;;;;;;;;;;;;;;;;2074212;28;1655;-80
2021/09/30 00:06:41;;;;;;;;;;;;;;;;;;2074077;28;1968;-80
2021/09/30 00:07:42;;;;;;;;;;;;;;;;;;2066529;28;1532;-80
2021/09/30 00:08:45;;;;;;;;;;;;;;;;;;2058226;28;1575;-80
2021/09/30 00:09:47;;;;;;;;;;;;;;;;;;2066832;28;1501;-80
2021/09/30 00:10:56;;;;;;;;;;;;;;;;;;2066522;28;1826;-80
2021/09/30 00:12:04;;;;;;;;;;;;;;;;;;2067709;28;1605;-80
2021/09/30 00:13:15;;;;;;;;;;;;;;;;;;2066442;28;1220;-80
2021/09/30 00:14:22;;;;;;;;;;;;;;;;;;2067745;28;849;-81
2021/09/30 00:15:32;;;;;;;;;;;;;;;;;;2066561;28;1550;-80
2021/09/30 00:16:57;;;;;;;;;;;;;;;;;;2067814;28;1588;-80
2021/09/30 00:33:05;;;;;;;;;;;;;;;;;;2068949;28;1272;-80
2021/09/30 00:34:11;;;;;;;;;;;;;;;;;;2074736;28;896;-80
2021/09/30 00:40:31;;;;;;;;;;;;;;;;;;2069104;28;1911;-80
2021/09/30 00:41:44;;;;;;;;;;;;;;;;;;2066965;28;1488;-80
2021/09/30 00:46:50;;;;;;;;;;;;;;;;;;2064139;28;1918;-80
2021/09/30 00:47:56;;;;;;;;;;;;;;;;;;2066346;28;1284;-80
2021/09/30 00:50:27;;;;;;;;;;;;;;;;;;2074074;28;1322;-82
2021/09/30 00:51:38;;;;;;;;;;;;;;;;;;2072893;28;1390;-80
2021/09/30 00:52:48;;;;;;;;;;;;;;;;;;2061051;28;1545;-80
2021/09/30 00:54:13;;;;;;;;;;;;;;;;;;2075991;28;813;-80
2021/09/30 01:20:23;;;;;;;;;;;;;;;;;;2078726;28;1609;-80
2021/09/30 01:46:49;;;;;;;;;;;;;;;;;;2083989;28;1975;-80
2021/09/30 02:19:54;;;;;;;;;;;;;;;;;;2125896;27;1910;-79
2021/09/30 02:22:35;;;;;;;;;;;;;;;;;;2089305;28;1578;-79
2021/09/30 02:29:21;;;;;;;;;;;;;;;;;;2114746;28;1203;-80
2021/09/30 02:30:52;;;;;;;;;;;;;;;;;;2114772;28;1217;-80
2021/09/30 02:39:35;;;;;;;;;;;;;;;;;;2119726;28;1557;-78
2021/09/30 02:58:32;;;;;;;;;;;;;;;;;;2115084;28;1639;-80
2021/09/30 02:59:33;;;;;;;;;;;;;;;;;;2107908;28;1811;-80
2021/09/30 03:00:35;;;;;;;;;;;;;;;;;;2102196;28;1211;-80
2021/09/30 03:01:36;;;;;;;;;;;;;;;;;;2106954;28;1305;-80
2021/09/30 03:02:39;;;;;;;;;;;;;;;;;;2106331;28;1638;-80
2021/09/30 03:03:41;;;;;;;;;;;;;;;;;;2114441;28;2136;-80
2021/09/30 03:04:43;;;;;;;;;;;;;;;;;;2114275;28;1661;-80
2021/09/30 03:05:46;;;;;;;;;;;;;;;;;;2106357;28;1664;-80
2021/09/30 03:06:50;;;;;;;;;;;;;;;;;;2098034;28;1399;-80
2021/09/30 03:07:52;;;;;;;;;;;;;;;;;;2098499;28;1220;-80
2021/09/30 03:08:58;;;;;;;;;;;;;;;;;;2114548;28;1699;-80
2021/09/30 03:09:59;;;;;;;;;;;;;;;;;;2106913;28;1278;-80
2021/09/30 03:11:02;;;;;;;;;;;;;;;;;;2114179;28;1322;-80
2021/09/30 03:12:04;;;;;;;;;;;;;;;;;;2114824;27;1446;-79
2021/09/30 03:13:06;;;;;;;;;;;;;;;;;;2106439;28;1245;-79
2021/09/30 03:14:08;;;;;;;;;;;;;;;;;;2106725;28;1667;-80
2021/09/30 03:15:16;;;;;;;;;;;;;;;;;;2107123;28;1372;-80
2021/09/30 03:16:24;;;;;;;;;;;;;;;;;;2107221;28;1222;-81
2021/09/30 03:17:42;;;;;;;;;;;;;;;;;;2107646;28;1701;-80
2021/09/30 03:18:55;;;;;;;;;;;;;;;;;;2113580;28;1891;-80
2021/09/30 03:20:05;;;;;;;;;;;;;;;;;;2116797;28;1420;-80
2021/09/30 03:22:36;;;;;;;;;;;;;;;;;;2088217;28;1523;-80
2021/09/30 03:23:38;;;;;;;;;;;;;;;;;;2089426;28;1344;-81
2021/09/30 03:24:42;;;;;;;;;;;;;;;;;;2110705;28;1761;-81
2021/09/30 03:25:48;;;;;;;;;;;;;;;;;;2111331;28;1973;-80
2021/09/30 03:26:50;;;;;;;;;;;;;;;;;;2114537;28;1386;-80
2021/09/30 03:27:52;;;;;;;;;;;;;;;;;;2114563;28;1285;-79
2021/09/30 03:28:54;;;;;;;;;;;;;;;;;;2111001;28;1660;-80
2021/09/30 03:29:55;;;;;;;;;;;;;;;;;;2114760;28;1315;-80
2021/09/30 03:30:58;;;;;;;;;;;;;;;;;;2113866;28;1319;-80
2021/09/30 03:32:00;;;;;;;;;;;;;;;;;;2109149;28;1446;-81
2021/09/30 03:33:29;;;;;;;;;;;;;;;;;;2118348;28;1297;-81
2021/09/30 03:34:36;;;;;;;;;;;;;;;;;;2115240;28;1280;-81
2021/09/30 03:35:38;;;;;;;;;;;;;;;;;;2118287;28;1910;-81
2021/09/30 03:36:40;;;;;;;;;;;;;;;;;;2114390;28;1687;-81
2021/09/30 03:37:43;;;;;;;;;;;;;;;;;;2114225;28;1539;-81
2021/09/30 03:38:44;;;;;;;;;;;;;;;;;;2105602;28;2074;-81
2021/09/30 03:39:45;;;;;;;;;;;;;;;;;;2098073;28;1816;-81
2021/09/30 03:40:47;;;;;;;;;;;;;;;;;;2105724;28;1870;-83
2021/09/30 03:41:48;;;;;;;;;;;;;;;;;;2106167;28;1207;-83
2021/09/30 03:42:53;;;;;;;;;;;;;;;;;;2120317;28;1334;-82
2021/09/30 03:43:54;;;;;;;;;;;;;;;;;;2106871;28;1364;-82
2021/09/30 03:45:00;;;;;;;;;;;;;;;;;;2114956;28;1644;-83
2021/09/30 03:46:01;;;;;;;;;;;;;;;;;;2113809;28;2095;-84
2021/09/30 03:47:06;;;;;;;;;;;;;;;;;;2103256;28;1572;-84
2021/09/30 03:48:15;;;;;;;;;;;;;;;;;;2102536;28;1660;-84
2021/09/30 03:49:23;;;;;;;;;;;;;;;;;;2108696;28;1776;-85
2021/09/30 03:50:30;;;;;;;;;;;;;;;;;;2109240;28;1784;-84
2021/09/30 03:51:38;;;;;;;;;;;;;;;;;;2109921;28;1460;-84
2021/09/30 03:52:47;;;;;;;;;;;;;;;;;;2109563;28;1487;-84
2021/09/30 03:53:59;;;;;;;;;;;;;;;;;;2116901;28;1203;-83
2021/09/30 03:55:19;;;;;;;;;;;;;;;;;;2109994;28;1510;-84
2021/09/30 03:57:50;;;;;;;;;;;;;;;;;;2107985;28;1201;-84
2021/09/30 04:00:42;;;;;;;;;;;;;;;;;;2089014;28;1478;-83
2021/09/30 04:01:45;;;;;;;;;;;;;;;;;;2075187;28;1622;-83
2021/09/30 04:02:45;;;;;;;;;;;;;;;;;;2067342;28;1457;-83
2021/09/30 04:03:47;;;;;;;;;;;;;;;;;;2075151;28;1731;-83
2021/09/30 04:04:48;;;;;;;;;;;;;;;;;;2074864;28;1507;-85
2021/09/30 04:05:50;;;;;;;;;;;;;;;;;;2078719;28;1222;-84
2021/09/30 04:06:51;;;;;;;;;;;;;;;;;;2106756;28;1432;-85
2021/09/30 04:07:52;;;;;;;;;;;;;;;;;;2108755;28;1269;-85
2021/09/30 04:08:57;;;;;;;;;;;;;;;;;;2104936;28;1206;-91
2021/09/30 04:10:02;;;;;;;;;;;;;;;;;;2100864;28;1392;-87
2021/09/30 04:11:03;;;;;;;;;;;;;;;;;;2100678;28;1324;-86
2021/09/30 04:12:06;;;;;;;;;;;;;;;;;;2109036;28;1269;-86
2021/09/30 04:13:08;;;;;;;;;;;;;;;;;;2108318;28;2105;-89
2021/09/30 04:14:14;;;;;;;;;;;;;;;;;;2107752;28;1559;-85
2021/09/30 04:15:15;;;;;;;;;;;;;;;;;;2108627;28;1692;-85
2021/09/30 04:16:17;;;;;;;;;;;;;;;;;;2108600;28;1886;-86
2021/09/30 04:17:19;;;;;;;;;;;;;;;;;;2108784;28;1511;-87
2021/09/30 04:18:21;;;;;;;;;;;;;;;;;;2108744;28;1320;-85
2021/09/30 04:19:24;;;;;;;;;;;;;;;;;;2108976;28;1190;-84
2021/09/30 04:20:28;;;;;;;;;;;;;;;;;;2100374;28;1278;-84
2021/09/30 04:21:39;;;;;;;;;;;;;;;;;;2109396;28;1206;-85
2021/09/30 04:22:42;;;;;;;;;;;;;;;;;;2108804;28;1533;-85
2021/09/30 04:23:43;;;;;;;;;;;;;;;;;;2099933;28;1935;-84
2021/09/30 04:24:48;;;;;;;;;;;;;;;;;;2104435;28;1724;-84
2021/09/30 04:25:50;;;;;;;;;;;;;;;;;;2117026;28;1546;-84
2021/09/30 04:26:55;;;;;;;;;;;;;;;;;;2108276;28;1457;-84
2021/09/30 04:27:56;;;;;;;;;;;;;;;;;;2100932;28;1434;-84
2021/09/30 04:28:57;;;;;;;;;;;;;;;;;;2098175;28;1785;-84
2021/09/30 04:29:59;;;;;;;;;;;;;;;;;;2108899;28;1332;-85
2021/09/30 04:31:03;;;;;;;;;;;;;;;;;;2115682;28;1884;-85
2021/09/30 04:32:08;;;;;;;;;;;;;;;;;;2109375;28;1463;-84
2021/09/30 04:33:10;;;;;;;;;;;;;;;;;;2107914;28;1757;-85
2021/09/30 04:34:11;;;;;;;;;;;;;;;;;;2108363;28;1382;-85
2021/09/30 04:35:14;;;;;;;;;;;;;;;;;;2108109;28;1437;-86
2021/09/30 04:36:15;;;;;;;;;;;;;;;;;;2116351;28;1922;-84
2021/09/30 04:37:22;;;;;;;;;;;;;;;;;;2117077;28;1643;-85
2021/09/30 04:38:22;;;;;;;;;;;;;;;;;;2104795;28;1768;-85
2021/09/30 04:39:25;;;;;;;;;;;;;;;;;;2116555;28;1376;-86
2021/09/30 04:40:29;;;;;;;;;;;;;;;;;;2108304;28;1499;-83
2021/09/30 04:41:31;;;;;;;;;;;;;;;;;;2103983;28;1268;-87
2021/09/30 04:42:32;;;;;;;;;;;;;;;;;;2099843;28;1399;-84
2021/09/30 04:43:34;;;;;;;;;;;;;;;;;;2113487;28;1862;-83
2021/09/30 04:44:34;;;;;;;;;;;;;;;;;;2107951;28;1238;-84
2021/09/30 04:45:36;;;;;;;;;;;;;;;;;;2112513;28;2007;-85
2021/09/30 04:46:50;;;;;;;;;;;;;;;;;;2116841;28;1349;-84
2021/09/30 04:48:10;;;;;;;;;;;;;;;;;;2114519;28;1969;-85
2021/09/30 04:49:13;;;;;;;;;;;;;;;;;;2108441;28;1507;-83
2021/09/30 04:50:14;;;;;;;;;;;;;;;;;;2100231;28;1321;-83
2021/09/30 04:51:16;;;;;;;;;;;;;;;;;;2094061;28;1324;-84
2021/09/30 04:52:17;;;;;;;;;;;;;;;;;;2106583;28;1404;-84
2021/09/30 04:53:20;;;;;;;;;;;;;;;;;;2099793;28;1793;-84
2021/09/30 04:54:21;;;;;;;;;;;;;;;;;;2115832;28;1493;-85
2021/09/30 04:55:23;;;;;;;;;;;;;;;;;;2105084;28;1748;-84
2021/09/30 04:56:25;;;;;;;;;;;;;;;;;;2091860;28;1918;-84
2021/09/30 04:57:32;;;;;;;;;;;;;;;;;;2088110;28;1369;-84
2021/09/30 04:58:32;;;;;;;;;;;;;;;;;;2096241;28;1923;-84
2021/09/30 04:59:34;;;;;;;;;;;;;;;;;;2099574;28;1364;-85
2021/09/30 05:00:56;;;;;;;;;;;;;;;;;;2099611;28;1763;-84
2021/09/30 05:01:59;;;;;;;;;;;;;;;;;;2094917;28;1328;-84
2021/09/30 05:03:00;;;;;;;;;;;;;;;;;;2101686;28;1554;-84
2021/09/30 05:04:02;;;;;;;;;;;;;;;;;;2104885;28;1206;-83
2021/09/30 05:05:03;;;;;;;;;;;;;;;;;;2099676;28;1293;-84
2021/09/30 05:06:06;;;;;;;;;;;;;;;;;;2107825;28;1647;-84
2021/09/30 05:07:07;;;;;;;;;;;;;;;;;;2116441;28;1296;-84
2021/09/30 05:08:11;;;;;;;;;;;;;;;;;;2116076;28;1949;-84
2021/09/30 05:09:16;;;;;;;;;;;;;;;;;;2116510;28;1425;-84
2021/09/30 05:10:20;;;;;;;;;;;;;;;;;;2107379;28;1909;-84
2021/09/30 05:11:31;;;;;;;;;;;;;;;;;;2102681;28;1343;-84
2021/09/30 05:12:33;;;;;;;;;;;;;;;;;;2109227;28;1363;-84
2021/09/30 05:13:38;;;;;;;;;;;;;;;;;;2099791;28;1229;-84
2021/09/30 05:14:39;;;;;;;;;;;;;;;;;;2093713;28;1295;-84
2021/09/30 05:15:41;;;;;;;;;;;;;;;;;;2100367;28;1836;-84
2021/09/30 05:17:02;;;;;;;;;;;;;;;;;;2111020;28;1468;-84
2021/09/30 05:18:11;;;;;;;;;;;;;;;;;;2105546;28;1674;-83
2021/09/30 05:19:13;;;;;;;;;;;;;;;;;;2101871;28;1454;-84
2021/09/30 05:20:14;;;;;;;;;;;;;;;;;;2100889;28;1885;-84
2021/09/30 05:21:16;;;;;;;;;;;;;;;;;;2099642;28;1529;-84
2021/09/30 05:22:17;;;;;;;;;;;;;;;;;;2104892;28;1404;-84
2021/09/30 05:23:19;;;;;;;;;;;;;;;;;;2106948;28;1590;-84
2021/09/30 05:24:20;;;;;;;;;;;;;;;;;;2101292;28;1286;-84
2021/09/30 05:25:22;;;;;;;;;;;;;;;;;;2107153;28;1706;-85
2021/09/30 05:26:27;;;;;;;;;;;;;;;;;;2104736;28;1401;-84
2021/09/30 05:27:30;;;;;;;;;;;;;;;;;;2108171;28;1871;-83
2021/09/30 05:28:34;;;;;;;;;;;;;;;;;;2094265;28;1880;-84
2021/09/30 05:29:36;;;;;;;;;;;;;;;;;;2100161;28;1231;-83
2021/09/30 05:30:41;;;;;;;;;;;;;;;;;;2103170;28;2020;-83
2021/09/30 05:31:50;;;;;;;;;;;;;;;;;;2101014;28;1771;-84
2021/09/30 05:33:09;;;;;;;;;;;;;;;;;;2108008;28;1882;-85
2021/09/30 05:34:17;;;;;;;;;;;;;;;;;;2101991;28;1487;-84
2021/09/30 05:35:18;;;;;;;;;;;;;;;;;;2094261;28;1553;-84
2021/09/30 05:36:26;;;;;;;;;;;;;;;;;;2108714;28;1975;-83
2021/09/30 05:37:29;;;;;;;;;;;;;;;;;;2093913;28;1317;-84
2021/09/30 05:38:34;;;;;;;;;;;;;;;;;;2093813;28;1762;-84
2021/09/30 05:39:34;;;;;;;;;;;;;;;;;;2107907;28;1596;-83
2021/09/30 05:40:36;;;;;;;;;;;;;;;;;;2107180;28;1729;-84
2021/09/30 05:41:37;;;;;;;;;;;;;;;;;;2099911;28;1436;-84
2021/09/30 05:42:39;;;;;;;;;;;;;;;;;;2096276;28;1314;-84
2021/09/30 05:43:49;;;;;;;;;;;;;;;;;;2107300;28;1489;-83
2021/09/30 05:44:51;;;;;;;;;;;;;;;;;;2111739;28;1391;-84
2021/09/30 05:45:55;;;;;;;;;;;;;;;;;;2103134;28;1293;-82
2021/09/30 05:46:57;;;;;;;;;;;;;;;;;;2107587;28;1439;-83
2021/09/30 05:47:57;;;;;;;;;;;;;;;;;;2107913;28;1438;-84
2021/09/30 05:48:59;;;;;;;;;;;;;;;;;;2104390;28;1869;-84
2021/09/30 05:50:03;;;;;;;;;;;;;;;;;;2099616;28;1376;-84
2021/09/30 05:51:16;;;;;;;;;;;;;;;;;;2106703;28;1376;-84
2021/09/30 05:52:38;;;;;;;;;;;;;;;;;;2110606;28;1340;-83
2021/09/30 05:54:01;;;;;;;;;;;;;;;;;;2106441;28;1762;-84
2021/09/30 05:55:10;;;;;;;;;;;;;;;;;;2113668;28;1666;-83
2021/09/30 05:56:13;;;;;;;;;;;;;;;;;;2107235;28;1425;-84
2021/09/30 05:57:14;;;;;;;;;;;;;;;;;;2105430;28;1980;-84
2021/09/30 05:58:17;;;;;;;;;;;;;;;;;;2101817;28;2078;-86
2021/09/30 05:59:21;;;;;;;;;;;;;;;;;;2107877;28;1313;-83
2021/09/30 06:00:28;;;;;;;;;;;;;;;;;;2107582;28;1826;-84
2021/09/30 06:01:57;;;;;;;;;;;;;;;;;;2107820;28;1490;-84
2021/09/30 06:11:37;;;;;;;;;;;;;;;;;;2080429;28;1266;-84
2021/09/30 06:12:39;;;;;;;;;;;;;;;;;;2080794;28;1409;-84
2021/09/30 06:13:46;;;;;;;;;;;;;;;;;;2104284;28;1696;-85
2021/09/30 06:14:50;;;;;;;;;;;;;;;;;;2102401;28;1340;-84
2021/09/30 06:15:53;;;;;;;;;;;;;;;;;;2104649;28;2103;-84
2021/09/30 06:16:55;;;;;;;;;;;;;;;;;;2105315;28;2242;-84
2021/09/30 06:18:00;;;;;;;;;;;;;;;;;;2099402;28;1380;-84
2021/09/30 06:19:01;;;;;;;;;;;;;;;;;;2093949;28;2051;-83
2021/09/30 06:20:07;;;;;;;;;;;;;;;;;;2092782;28;1710;-84
2021/09/30 06:21:09;;;;;;;;;;;;;;;;;;2111549;28;1438;-84
2021/09/30 06:22:13;;;;;;;;;;;;;;;;;;2108041;28;1202;-84
2021/09/30 06:23:14;;;;;;;;;;;;;;;;;;2107476;28;1904;-84
2021/09/30 06:24:17;;;;;;;;;;;;;;;;;;2115988;28;1265;-84
2021/09/30 06:25:27;;;;;;;;;;;;;;;;;;2107699;28;1877;-83
2021/09/30 06:26:28;;;;;;;;;;;;;;;;;;2099476;28;1485;-84
2021/09/30 06:27:48;;;;;;;;;;;;;;;;;;2108078;28;622;-82
2021/09/30 06:28:49;;;;;;;;;;;;;;;;;;2113533;28;2072;-82
2021/09/30 06:29:53;;;;;;;;;;;;;;;;;;2107601;28;1388;-82
2021/09/30 06:30:55;;;;;;;;;;;;;;;;;;2107160;28;1824;-84
2021/09/30 06:32:32;;;;;;;;;;;;;;;;;;2110447;28;1294;-83
2021/09/30 06:33:55;;;;;;;;;;;;;;;;;;2111397;28;1273;-84
2021/09/30 06:35:17;;;;;;;;;;;;;;;;;;2108556;28;1167;-84
2021/09/30 06:36:24;;;;;;;;;;;;;;;;;;2113659;28;1675;-83
2021/09/30 06:37:25;;;;;;;;;;;;;;;;;;2107436;28;2234;-82
2021/09/30 06:38:27;;;;;;;;;;;;;;;;;;2095821;28;2011;-84
2021/09/30 06:39:28;;;;;;;;;;;;;;;;;;2091531;28;1374;-82
2021/09/30 06:40:31;;;;;;;;;;;;;;;;;;2098646;28;1372;-81
2021/09/30 06:41:32;;;;;;;;;;;;;;;;;;2092508;28;1349;-81
2021/09/30 06:42:54;;;;;;;;;;;;;;;;;;2101977;28;1282;-82
2021/09/30 06:44:03;;;;;;;;;;;;;;;;;;2113394;28;1692;-82
2021/09/30 06:45:39;;;;;;;;;;;;;;;;;;2115607;28;1732;-81
2021/09/30 06:47:01;;;;;;;;;;;;;;;;;;2110243;28;1055;-81
2021/09/30 06:48:05;;;;;;;;;;;;;;;;;;2102177;28;1360;-81
2021/09/30 06:49:18;;;;;;;;;;;;;;;;;;2101237;28;1357;-84
2021/09/30 06:50:39;;;;;;;;;;;;;;;;;;2108349;28;1900;-83
2021/09/30 06:51:59;;;;;;;;;;;;;;;;;;2107471;28;697;-82
2021/09/30 06:53:04;;;;;;;;;;;;;;;;;;2101760;28;1358;-82
2021/09/30 06:54:27;;;;;;;;;;;;;;;;;;2102253;28;1441;-82
2021/09/30 06:55:59;;;;;;;;;;;;;;;;;;2107051;28;1759;-82
2021/09/30 06:57:21;;;;;;;;;;;;;;;;;;2107916;28;1997;-83
2021/09/30 06:58:42;;;;;;;;;;;;;;;;;;2107842;28;621;-82
2021/09/30 07:00:06;;;;;;;;;;;;;;;;;;2108066;28;614;-82
2021/09/30 07:01:28;;;;;;;;;;;;;;;;;;2108144;28;676;-82
2021/09/30 07:02:48;;;;;;;;;;;;;;;;;;2108005;28;712;-83
2021/09/30 07:04:16;;;;;;;;;;;;;;;;;;2107685;28;1216;-83
2021/09/30 07:05:41;;;;;;;;;;;;;;;;;;2106525;28;1943;-83
2021/09/30 07:06:46;;;;;;;;;;;;;;;;;;2106768;28;1270;-83
2021/09/30 07:07:48;;;;;;;;;;;;;;;;;;2107579;28;1221;-83
2021/09/30 07:08:49;;;;;;;;;;;;;;;;;;2106543;28;1545;-82
2021/09/30 07:09:50;;;;;;;;;;;;;;;;;;2107623;28;1317;-82
2021/09/30 07:10:52;;;;;;;;;;;;;;;;;;2112506;28;1845;-82
2021/09/30 07:11:53;;;;;;;;;;;;;;;;;;2115795;28;1370;-83
2021/09/30 07:12:54;;;;;;;;;;;;;;;;;;2107223;28;1202;-82
2021/09/30 07:13:55;;;;;;;;;;;;;;;;;;2100578;28;1845;-82
2021/09/30 07:14:57;;;;;;;;;;;;;;;;;;2107205;28;1273;-82
2021/09/30 07:15:58;;;;;;;;;;;;;;;;;;2100195;28;1858;-82
2021/09/30 07:17:00;;;;;;;;;;;;;;;;;;2098702;28;1894;-81
2021/09/30 07:18:10;;;;;;;;;;;;;;;;;;2099241;28;1193;-83
2021/09/30 07:19:10;;;;;;;;;;;;;;;;;;2107451;28;1261;-82
2021/09/30 07:20:12;;;;;;;;;;;;;;;;;;2100019;28;1755;-82
2021/09/30 07:21:13;;;;;;;;;;;;;;;;;;2107768;28;1215;-82
2021/09/30 07:22:15;;;;;;;;;;;;;;;;;;2108310;28;1328;-85
2021/09/30 07:23:17;;;;;;;;;;;;;;;;;;2100742;28;1371;-83
2021/09/30 07:24:19;;;;;;;;;;;;;;;;;;2101266;28;1408;-83
2021/09/30 07:25:24;;;;;;;;;;;;;;;;;;2109433;28;1281;-83
2021/09/30 07:26:25;;;;;;;;;;;;;;;;;;2108921;28;1169;-82
2021/09/30 07:27:27;;;;;;;;;;;;;;;;;;2108918;28;1410;-82
2021/09/30 07:28:28;;;;;;;;;;;;;;;;;;2108001;28;2068;-83
2021/09/30 07:29:30;;;;;;;;;;;;;;;;;;2108916;28;1539;-82
2021/09/30 07:30:33;;;;;;;;;;;;;;;;;;2112358;28;1850;-83
2021/09/30 07:31:34;;;;;;;;;;;;;;;;;;2117437;28;903;-83
2021/09/30 07:32:37;;;;;;;;;;;;;;;;;;2117259;28;1323;-83
2021/09/30 07:33:37;;;;;;;;;;;;;;;;;;2116097;28;1989;-83
2021/09/30 07:34:40;;;;;;;;;;;;;;;;;;2108767;28;1541;-83
2021/09/30 07:35:41;;;;;;;;;;;;;;;;;;2100048;28;1356;-83
2021/09/30 07:36:44;;;;;;;;;;;;;;;;;;2100457;28;1796;-83
2021/09/30 07:37:45;;;;;;;;;;;;;;;;;;2108846;28;1901;-83
2021/09/30 07:38:47;;;;;;;;;;;;;;;;;;2113750;28;1988;-83
2021/09/30 07:39:48;;;;;;;;;;;;;;;;;;2117351;28;1664;-82
2021/09/30 07:40:50;;;;;;;;;;;;;;;;;;2117117;28;1629;-83
2021/09/30 07:41:50;;;;;;;;;;;;;;;;;;2100421;28;1260;-83
2021/09/30 07:42:53;;;;;;;;;;;;;;;;;;2100395;28;1514;-83
2021/09/30 07:43:55;;;;;;;;;;;;;;;;;;2108495;28;1874;-83
2021/09/30 07:44:56;;;;;;;;;;;;;;;;;;2117311;28;1297;-83
2021/09/30 07:45:58;;;;;;;;;;;;;;;;;;2117145;28;1517;-82
2021/09/30 07:46:59;;;;;;;;;;;;;;;;;;2100270;28;1369;-83
2021/09/30 07:48:03;;;;;;;;;;;;;;;;;;2108693;28;1347;-82
2021/09/30 07:49:05;;;;;;;;;;;;;;;;;;2115894;28;1982;-83
2021/09/30 07:50:08;;;;;;;;;;;;;;;;;;2117278;28;1613;-82
2021/09/30 07:51:09;;;;;;;;;;;;;;;;;;2116530;28;1229;-82
2021/09/30 07:52:10;;;;;;;;;;;;;;;;;;2108616;28;1407;-83
2021/09/30 07:53:14;;;;;;;;;;;;;;;;;;2108610;28;1847;-83
2021/09/30 07:54:15;;;;;;;;;;;;;;;;;;2108328;28;1277;-84
2021/09/30 07:55:18;;;;;;;;;;;;;;;;;;2100908;28;1933;-84
2021/09/30 07:56:18;;;;;;;;;;;;;;;;;;2108546;28;1755;-83
2021/09/30 07:57:20;;;;;;;;;;;;;;;;;;2100561;28;1909;-82
2021/09/30 07:58:21;;;;;;;;;;;;;;;;;;2101406;28;2005;-83
2021/09/30 07:59:22;;;;;;;;;;;;;;;;;;2107821;28;1641;-83
2021/09/30 08:00:24;;;;;;;;;;;;;;;;;;2103993;28;1473;-83
2021/09/30 08:01:25;;;;;;;;;;;;;;;;;;2114188;28;1648;-83
2021/09/30 08:02:27;;;;;;;;;;;;;;;;;;2108391;28;1340;-83
2021/09/30 08:03:29;;;;;;;;;;;;;;;;;;2106922;28;1642;-83
2021/09/30 08:04:31;;;;;;;;;;;;;;;;;;2116914;28;886;-83
2021/09/30 08:05:35;;;;;;;;;;;;;;;;;;2116693;28;1253;-83
2021/09/30 08:06:39;;;;;;;;;;;;;;;;;;2108991;28;1544;-83
2021/09/30 08:07:40;;;;;;;;;;;;;;;;;;2117514;28;819;-82
2021/09/30 08:08:42;;;;;;;;;;;;;;;;;;2111476;28;2005;-82
2021/09/30 08:09:42;;;;;;;;;;;;;;;;;;2107115;28;1770;-81
2021/09/30 08:10:44;;;;;;;;;;;;;;;;;;2107887;28;1895;-81
2021/09/30 08:11:45;;;;;;;;;;;;;;;;;;2117104;28;923;-82
2021/09/30 08:12:47;;;;;;;;;;;;;;;;;;2108057;28;1541;-81
2021/09/30 08:13:48;;;;;;;;;;;;;;;;;;2107699;28;1854;-81
2021/09/30 08:14:49;;;;;;;;;;;;;;;;;;2099731;28;1678;-81
2021/09/30 08:15:50;;;;;;;;;;;;;;;;;;2101542;28;1651;-80
2021/09/30 08:16:52;;;;;;;;;;;;;;;;;;2106715;28;1730;-80
2021/09/30 08:17:53;;;;;;;;;;;;;;;;;;2114133;28;1918;-80
2021/09/30 08:18:58;;;;;;;;;;;;;;;;;;2111164;28;1706;-81
2021/09/30 08:20:00;;;;;;;;;;;;;;;;;;2103944;28;1376;-80
2021/09/30 08:21:01;;;;;;;;;;;;;;;;;;2105241;28;1652;-80
2021/09/30 08:22:03;;;;;;;;;;;;;;;;;;2099799;28;1845;-81
2021/09/30 08:23:03;;;;;;;;;;;;;;;;;;2112145;28;1383;-82
2021/09/30 08:24:05;;;;;;;;;;;;;;;;;;2115851;28;1901;-81
2021/09/30 08:25:06;;;;;;;;;;;;;;;;;;2116011;28;1223;-81
2021/09/30 08:26:08;;;;;;;;;;;;;;;;;;2114939;28;1571;-81
2021/09/30 08:27:10;;;;;;;;;;;;;;;;;;2107995;28;1510;-81
2021/09/30 08:28:11;;;;;;;;;;;;;;;;;;2116482;28;1820;-81
2021/09/30 08:29:14;;;;;;;;;;;;;;;;;;2100730;28;1529;-81
2021/09/30 08:30:14;;;;;;;;;;;;;;;;;;2092579;28;1566;-84
2021/09/30 08:31:16;;;;;;;;;;;;;;;;;;2116505;28;1561;-81
2021/09/30 08:32:17;;;;;;;;;;;;;;;;;;2100362;28;1700;-81
2021/09/30 08:33:22;;;;;;;;;;;;;;;;;;2106322;28;1773;-80
2021/09/30 08:34:25;;;;;;;;;;;;;;;;;;2108649;28;1311;-80
2021/09/30 08:35:26;;;;;;;;;;;;;;;;;;2102643;28;2027;-80
2021/09/30 08:36:28;;;;;;;;;;;;;;;;;;2100072;28;1308;-81
2021/09/30 08:37:31;;;;;;;;;;;;;;;;;;2099764;28;1918;-80
2021/09/30 08:38:32;;;;;;;;;;;;;;;;;;2103016;28;1772;-81
2021/09/30 08:39:34;;;;;;;;;;;;;;;;;;2116687;28;1696;-80
2021/09/30 08:40:35;;;;;;;;;;;;;;;;;;2107239;28;1556;-80
2021/09/30 08:41:37;;;;;;;;;;;;;;;;;;2108232;28;1709;-80
2021/09/30 08:42:41;;;;;;;;;;;;;;;;;;2116981;28;855;-80
2021/09/30 08:43:44;;;;;;;;;;;;;;;;;;2116013;28;1890;-80
2021/09/30 08:44:44;;;;;;;;;;;;;;;;;;2116600;28;1896;-80
2021/09/30 08:45:46;;;;;;;;;;;;;;;;;;2107233;28;1902;-83
2021/09/30 08:46:47;;;;;;;;;;;;;;;;;;2099745;28;1620;-82
2021/09/30 08:47:55;;;;;;;;;;;;;;;;;;2099967;28;1776;-82
2021/09/30 08:48:56;;;;;;;;;;;;;;;;;;2115467;28;832;-81
2021/09/30 08:50:00;;;;;;;;;;;;;;;;;;2112797;28;1749;-82
2021/09/30 08:51:02;;;;;;;;;;;;;;;;;;2108151;28;1466;-82
2021/09/30 08:52:03;;;;;;;;;;;;;;;;;;2101291;28;1684;-84
2021/09/30 08:53:05;;;;;;;;;;;;;;;;;;2108054;28;1281;-82
2021/09/30 08:54:08;;;;;;;;;;;;;;;;;;2099686;28;1289;-82
2021/09/30 08:55:10;;;;;;;;;;;;;;;;;;2099575;28;1483;-82
2021/09/30 08:56:12;;;;;;;;;;;;;;;;;;2095882;28;1679;-81
2021/09/30 08:57:13;;;;;;;;;;;;;;;;;;2107887;28;1275;-81
2021/09/30 08:58:15;;;;;;;;;;;;;;;;;;2100318;28;1909;-82
2021/09/30 08:59:17;;;;;;;;;;;;;;;;;;2099875;28;1236;-82
2021/09/30 09:00:19;;;;;;;;;;;;;;;;;;2099577;28;1502;-82
2021/09/30 09:01:21;;;;;;;;;;;;;;;;;;2099824;28;1637;-82
2021/09/30 09:02:22;;;;;;;;;;;;;;;;;;2099467;28;1248;-82
2021/09/30 09:03:31;;;;;;;;;;;;;;;;;;2101561;28;2093;-81
2021/09/30 09:04:32;;;;;;;;;;;;;;;;;;2107878;28;1380;-81
2021/09/30 09:05:38;;;;;;;;;;;;;;;;;;2108038;28;2043;-81
2021/09/30 09:06:38;;;;;;;;;;;;;;;;;;2101214;28;1493;-81
2021/09/30 09:07:51;;;;;;;;;;;;;;;;;;2108290;28;1701;-81
2021/09/30 09:08:57;;;;;;;;;;;;;;;;;;2113971;28;2028;-83
2021/09/30 09:10:01;;;;;;;;;;;;;;;;;;2106894;28;1525;-82
2021/09/30 09:11:04;;;;;;;;;;;;;;;;;;2099683;28;1210;-82
2021/09/30 09:12:06;;;;;;;;;;;;;;;;;;2108249;28;1107;-82
2021/09/30 09:13:09;;;;;;;;;;;;;;;;;;2107994;28;1707;-81
2021/09/30 09:14:11;;;;;;;;;;;;;;;;;;2108284;28;804;-80
2021/09/30 09:15:13;;;;;;;;;;;;;;;;;;2099406;28;1610;-81
2021/09/30 09:16:13;;;;;;;;;;;;;;;;;;2105261;28;1667;-81
2021/09/30 09:17:16;;;;;;;;;;;;;;;;;;2108477;28;1756;-82
2021/09/30 09:18:20;;;;;;;;;;;;;;;;;;2107323;28;1971;-81
2021/09/30 09:19:31;;;;;;;;;;;;;;;;;;2099831;28;1505;-81
2021/09/30 09:20:33;;;;;;;;;;;;;;;;;;2111983;28;2047;-81
2021/09/30 09:21:39;;;;;;;;;;;;;;;;;;2116447;28;1591;-82
2021/09/30 09:22:42;;;;;;;;;;;;;;;;;;2108651;28;1388;-82
2021/09/30 09:23:53;;;;;;;;;;;;;;;;;;2107657;28;2081;-82
2021/09/30 09:24:58;;;;;;;;;;;;;;;;;;2115509;28;1662;-82
2021/09/30 09:26:06;;;;;;;;;;;;;;;;;;2109356;28;1580;-82
2021/09/30 09:27:08;;;;;;;;;;;;;;;;;;2108483;28;1785;-82
2021/09/30 09:28:10;;;;;;;;;;;;;;;;;;2115910;28;2021;-82
2021/09/30 09:29:13;;;;;;;;;;;;;;;;;;2116102;28;1539;-82
2021/09/30 09:30:25;;;;;;;;;;;;;;;;;;2114974;28;1900;-83
2021/09/30 09:31:29;;;;;;;;;;;;;;;;;;2108057;28;1382;-82
2021/09/30 09:32:30;;;;;;;;;;;;;;;;;;2108421;28;1931;-82
2021/09/30 09:33:35;;;;;;;;;;;;;;;;;;2113074;28;1858;-82
2021/09/30 09:34:36;;;;;;;;;;;;;;;;;;2116091;28;1710;-81
2021/09/30 09:35:50;;;;;;;;;;;;;;;;;;2107844;28;1569;-83
2021/09/30 09:36:54;;;;;;;;;;;;;;;;;;2116377;28;1060;-81
2021/09/30 09:38:00;;;;;;;;;;;;;;;;;;2116771;28;1909;-82
2021/09/30 09:39:02;;;;;;;;;;;;;;;;;;2108148;28;1691;-85
2021/09/30 09:40:13;;;;;;;;;;;;;;;;;;2116716;28;828;-82
2021/09/30 09:41:22;;;;;;;;;;;;;;;;;;2112307;28;1309;-82
2021/09/30 09:42:28;;;;;;;;;;;;;;;;;;2107956;28;1710;-83
2021/09/30 09:43:41;;;;;;;;;;;;;;;;;;2102834;28;1380;-82
2021/09/30 09:44:56;;;;;;;;;;;;;;;;;;2095925;28;1708;-82
2021/09/30 09:45:56;;;;;;;;;;;;;;;;;;2107796;28;1060;-82
2021/09/30 09:46:58;;;;;;;;;;;;;;;;;;2107694;28;1696;-82
2021/09/30 09:48:01;;;;;;;;;;;;;;;;;;2091394;28;1566;-83
2021/09/30 09:49:05;;;;;;;;;;;;;;;;;;2091634;28;1288;-83
2021/09/30 09:50:10;;;;;;;;;;;;;;;;;;2103722;28;1674;-84
2021/09/30 09:51:12;;;;;;;;;;;;;;;;;;2099977;28;1584;-82
2021/09/30 09:52:15;;;;;;;;;;;;;;;;;;2107337;28;1404;-83
2021/09/30 09:53:17;;;;;;;;;;;;;;;;;;2100460;28;2014;-82
2021/09/30 09:54:20;;;;;;;;;;;;;;;;;;2098970;28;1660;-82
2021/09/30 09:55:22;;;;;;;;;;;;;;;;;;2091360;28;1264;-83
2021/09/30 09:56:24;;;;;;;;;;;;;;;;;;2091282;28;1609;-82
2021/09/30 09:57:25;;;;;;;;;;;;;;;;;;2107723;28;803;-82
2021/09/30 09:58:26;;;;;;;;;;;;;;;;;;2107526;28;1926;-83
2021/09/30 09:59:29;;;;;;;;;;;;;;;;;;2091090;28;1555;-82
2021/09/30 10:00:30;;;;;;;;;;;;;;;;;;2091371;28;1709;-82
2021/09/30 10:01:38;;;;;;;;;;;;;;;;;;2098763;28;1256;-81
2021/09/30 10:02:39;;;;;;;;;;;;;;;;;;2099883;28;1626;-82
2021/09/30 10:03:49;;;;;;;;;;;;;;;;;;2091113;28;1689;-82
2021/09/30 10:04:51;;;;;;;;;;;;;;;;;;2093563;28;1661;-82